Time;durP1;ratioP1;P1;durP2;ratioP2;P2;SDS_P1;SDS_P2;PMS_P1;PMS_P2;Temp;Humidity;BMP_temperature;BMP_pressure;BME280_temperature;BME280_humidity;BME280_pressure;Samples;Min_cycle;Max_cycle;Signal;HPM_P1;HPM_P2
2023/10/23 00:02:08;;;;;;;11.85;7.03;;;13.30;79.80;;;;;;5095736;28;20023;-67
2023/10/23 00:04:34;;;;;;;11.18;7.15;;;13.30;79.80;;;;;;5114589;28;20452;-67
2023/10/23 00:07:00;;;;;;;11.68;7.72;;;13.30;79.80;;;;;;5092558;28;20031;-67
2023/10/23 00:09:26;;;;;;;10.30;6.85;;;13.30;79.70;;;;;;5082392;28;20472;-67
2023/10/23 00:11:51;;;;;;;11.90;7.10;;;13.30;79.70;;;;;;5076566;28;20096;-67
2023/10/23 00:14:17;;;;;;;11.65;7.28;;;13.30;79.70;;;;;;5092508;28;20074;-67
2023/10/23 00:16:43;;;;;;;12.02;7.20;;;13.20;79.60;;;;;;5091187;28;20382;-67
2023/10/23 00:19:08;;;;;;;11.30;7.10;;;13.20;79.60;;;;;;5085710;28;20457;-67
2023/10/23 00:21:34;;;;;;;10.10;6.75;;;13.20;79.60;;;;;;5101365;28;20024;-67
2023/10/23 00:24:00;;;;;;;11.18;7.45;;;13.20;79.60;;;;;;5075726;28;20434;-67
2023/10/23 00:26:26;;;;;;;10.93;6.85;;;13.20;79.60;;;;;;5098738;28;20057;-67
2023/10/23 00:28:53;;;;;;;12.13;7.88;;;13.20;79.50;;;;;;5107206;28;20076;-68
2023/10/23 00:31:18;;;;;;;10.52;7.22;;;13.10;79.50;;;;;;5101475;28;20106;-69
2023/10/23 00:33:44;;;;;;;11.63;6.90;;;13.10;79.50;;;;;;5095138;28;20034;-67
2023/10/23 00:36:10;;;;;;;11.23;7.05;;;13.10;79.50;;;;;;5075335;28;20036;-67
2023/10/23 00:38:36;;;;;;;9.52;6.65;;;13.10;79.40;;;;;;5113913;28;20491;-67
2023/10/23 00:41:02;;;;;;;12.95;7.82;;;13.00;79.40;;;;;;5105773;28;20662;-67
2023/10/23 00:43:28;;;;;;;10.80;7.13;;;13.00;79.30;;;;;;5109645;28;20028;-67
2023/10/23 00:45:59;;;;;;;10.90;7.15;;;13.00;79.30;;;;;;5106595;28;20028;-67
2023/10/23 00:48:26;;;;;;;12.07;7.78;;;12.90;79.30;;;;;;5110102;28;20032;-67
2023/10/23 00:50:58;;;;;;;12.02;7.03;;;12.90;79.20;;;;;;5099083;28;20020;-67
2023/10/23 00:53:27;;;;;;;10.25;6.60;;;12.90;79.20;;;;;;5091719;28;20484;-67
2023/10/23 00:55:54;;;;;;;11.18;7.40;;;12.90;79.20;;;;;;5075758;28;20025;-67
2023/10/23 00:58:25;;;;;;;10.57;7.20;;;12.80;79.20;;;;;;5105488;28;20044;-67
2023/10/23 01:00:52;;;;;;;11.02;6.97;;;12.90;79.20;;;;;;5075723;28;20047;-67
2023/10/23 01:03:18;;;;;;;11.20;7.45;;;12.90;79.20;;;;;;5070612;28;20031;-67
2023/10/23 01:05:44;;;;;;;12.15;7.13;;;12.80;79.10;;;;;;5072824;28;20024;-67
2023/10/23 01:08:10;;;;;;;13.20;8.40;;;12.80;79.00;;;;;;5074855;28;20016;-67
2023/10/23 01:10:36;;;;;;;13.13;7.25;;;12.80;79.00;;;;;;5107140;28;20032;-67
2023/10/23 01:13:07;;;;;;;11.65;7.78;;;12.80;79.00;;;;;;5090181;28;20097;-67
2023/10/23 01:15:33;;;;;;;12.53;7.57;;;12.80;79.00;;;;;;5108708;28;20057;-67
2023/10/23 01:18:01;;;;;;;10.98;7.10;;;12.70;79.00;;;;;;5100254;28;20023;-67
2023/10/23 01:20:28;;;;;;;11.40;7.97;;;12.70;78.90;;;;;;5114773;28;20016;-67
2023/10/23 01:22:59;;;;;;;11.65;7.60;;;12.70;78.90;;;;;;5074741;28;20029;-67
2023/10/23 01:25:26;;;;;;;11.52;7.35;;;12.70;78.90;;;;;;5104225;28;20042;-67
2023/10/23 01:27:52;;;;;;;11.18;7.50;;;12.70;78.90;;;;;;5099755;28;20493;-67
2023/10/23 01:30:18;;;;;;;11.02;7.65;;;12.70;78.80;;;;;;5104103;28;20402;-67
2023/10/23 01:32:44;;;;;;;10.80;7.72;;;12.70;78.90;;;;;;5098965;28;20464;-67
2023/10/23 01:35:11;;;;;;;10.48;7.05;;;12.70;78.90;;;;;;5096553;28;20019;-67
2023/10/23 01:37:37;;;;;;;11.80;7.75;;;12.70;78.90;;;;;;5087537;28;20395;-67
2023/10/23 01:40:04;;;;;;;11.70;7.97;;;12.60;78.80;;;;;;5102047;28;20023;-67
2023/10/23 01:42:32;;;;;;;10.93;6.75;;;12.70;78.90;;;;;;5103645;28;20054;-67
2023/10/23 01:44:59;;;;;;;11.20;7.00;;;12.60;78.90;;;;;;5078069;28;20060;-66
2023/10/23 01:47:26;;;;;;;12.05;7.75;;;12.60;79.00;;;;;;5086354;28;20042;-67
2023/10/23 01:49:52;;;;;;;11.43;7.43;;;12.60;79.10;;;;;;5102291;28;20032;-67
2023/10/23 01:52:18;;;;;;;11.80;7.50;;;12.70;79.20;;;;;;5096410;28;20097;-67
2023/10/23 01:54:44;;;;;;;12.32;7.38;;;12.70;79.20;;;;;;5091341;28;20066;-67
2023/10/23 01:57:10;;;;;;;10.68;7.50;;;12.70;79.30;;;;;;5082628;28;20396;-67
2023/10/23 01:59:37;;;;;;;11.68;7.85;;;12.70;79.30;;;;;;5092865;28;20036;-67
2023/10/23 02:02:03;;;;;;;12.13;8.45;;;12.70;79.30;;;;;;5110909;28;20020;-67
2023/10/23 02:04:29;;;;;;;10.93;7.45;;;12.70;79.30;;;;;;5095041;28;20035;-67
2023/10/23 02:06:55;;;;;;;12.43;8.13;;;12.70;79.30;;;;;;5108081;28;20460;-67
2023/10/23 02:09:21;;;;;;;11.07;6.95;;;12.80;79.40;;;;;;5113457;28;20036;-67
2023/10/23 02:11:49;;;;;;;11.23;7.78;;;12.80;79.50;;;;;;5109408;28;20036;-66
2023/10/23 02:14:15;;;;;;;12.18;7.63;;;12.80;79.50;;;;;;5093359;28;20070;-67
2023/10/23 02:16:41;;;;;;;10.93;8.02;;;12.80;80.10;;;;;;5093926;28;20031;-67
2023/10/23 02:19:08;;;;;;;12.60;8.07;;;12.80;79.40;;;;;;5094528;28;20022;-67
2023/10/23 02:21:35;;;;;;;11.95;7.57;;;12.80;79.50;;;;;;5089751;28;20024;-67
2023/10/23 02:24:00;;;;;;;13.10;7.85;;;12.90;79.60;;;;;;5101784;28;20036;-67
2023/10/23 02:26:28;;;;;;;11.65;7.72;;;12.90;79.50;;;;;;5100702;28;20027;-67
2023/10/23 02:28:53;;;;;;;11.80;8.02;;;12.90;79.50;;;;;;5116336;28;20032;-67
2023/10/23 02:31:19;;;;;;;13.10;7.95;;;12.90;79.50;;;;;;5101830;28;20046;-66
2023/10/23 02:33:45;;;;;;;10.68;7.35;;;12.90;79.50;;;;;;5098326;28;20195;-67
2023/10/23 02:36:11;;;;;;;11.55;8.00;;;12.90;79.50;;;;;;5101911;28;20110;-67
2023/10/23 02:38:37;;;;;;;12.13;8.10;;;13.00;79.60;;;;;;5098640;28;20107;-67
2023/10/23 02:41:03;;;;;;;11.27;7.93;;;13.00;79.70;;;;;;5103022;28;20106;-67
2023/10/23 02:43:29;;;;;;;13.07;8.88;;;13.00;79.70;;;;;;5092938;28;20096;-67
2023/10/23 02:45:59;;;;;;;10.88;7.78;;;12.90;79.70;;;;;;5087059;28;20028;-67
2023/10/23 02:48:25;;;;;;;12.68;8.05;;;12.90;79.70;;;;;;5093328;28;20062;-67
2023/10/23 02:50:55;;;;;;;11.88;8.00;;;13.00;79.80;;;;;;5069541;28;20024;-67
2023/10/23 02:53:21;;;;;;;11.32;7.63;;;12.90;79.80;;;;;;5111951;28;20068;-67
2023/10/23 02:55:47;;;;;;;13.93;8.25;;;13.00;79.90;;;;;;5092965;28;20084;-67
2023/10/23 02:58:13;;;;;;;13.73;7.85;;;12.90;79.90;;;;;;5094786;28;20036;-67
2023/10/23 03:00:42;;;;;;;13.13;7.60;;;12.90;79.90;;;;;;5108664;28;20394;-67
2023/10/23 03:03:08;;;;;;;12.98;8.27;;;12.90;80.00;;;;;;5108731;28;20035;-67
2023/10/23 03:05:34;;;;;;;15.45;8.05;;;12.90;80.00;;;;;;5098961;28;20080;-67
2023/10/23 03:08:00;;;;;;;12.90;8.43;;;12.90;80.00;;;;;;5088471;28;20027;-67
2023/10/23 03:10:26;;;;;;;13.20;9.13;;;12.90;80.00;;;;;;5108951;28;20024;-67
2023/10/23 03:12:52;;;;;;;12.25;8.25;;;12.90;80.10;;;;;;5103721;28;20426;-67
2023/10/23 03:15:19;;;;;;;17.48;7.40;;;12.90;80.20;;;;;;5105468;28;20036;-67
2023/10/23 03:17:45;;;;;;;12.52;8.13;;;12.80;80.20;;;;;;5097134;28;20520;-67
2023/10/23 03:20:11;;;;;;;13.00;7.85;;;12.80;80.20;;;;;;5097340;28;20023;-67
2023/10/23 03:22:38;;;;;;;12.55;7.75;;;12.90;80.30;;;;;;5074729;28;20084;-67
2023/10/23 03:25:07;;;;;;;13.02;8.20;;;12.80;80.30;;;;;;5061196;28;20025;-67
2023/10/23 03:27:33;;;;;;;11.93;7.63;;;12.80;80.30;;;;;;5080492;28;20064;-67
2023/10/23 03:29:59;;;;;;;12.63;8.10;;;12.90;80.30;;;;;;5079099;28;20060;-67
2023/10/23 03:32:26;;;;;;;15.10;8.15;;;12.90;80.40;;;;;;5076140;28;20364;-67
2023/10/23 03:34:52;;;;;;;14.50;8.60;;;12.90;80.40;;;;;;5076612;28;20114;-67
2023/10/23 03:37:18;;;;;;;13.50;8.63;;;12.90;80.40;;;;;;5092407;28;20028;-67
2023/10/23 03:39:45;;;;;;;13.85;8.30;;;12.80;80.30;;;;;;5076733;28;20031;-67
2023/10/23 03:42:11;;;;;;;13.48;8.38;;;12.90;80.40;;;;;;5079678;28;20131;-67
2023/10/23 03:44:37;;;;;;;12.93;8.43;;;12.90;80.40;;;;;;5091925;28;20491;-67
2023/10/23 03:47:04;;;;;;;12.10;7.93;;;12.90;80.40;;;;;;5096075;28;20075;-66
2023/10/23 03:49:31;;;;;;;11.70;7.78;;;12.90;80.40;;;;;;5076770;28;20445;-66
2023/10/23 03:51:56;;;;;;;11.77;7.85;;;12.90;80.50;;;;;;5085353;28;20035;-66
2023/10/23 03:54:22;;;;;;;13.73;7.20;;;12.90;80.50;;;;;;5075439;28;20036;-66
2023/10/23 03:56:48;;;;;;;13.90;8.48;;;12.90;80.40;;;;;;5079976;28;20044;-66
2023/10/23 03:59:14;;;;;;;12.45;7.35;;;12.90;80.50;;;;;;5078541;28;20039;-66
2023/10/23 04:01:40;;;;;;;13.35;7.97;;;13.00;80.50;;;;;;5077240;28;20534;-66
2023/10/23 04:04:07;;;;;;;10.73;6.80;;;12.90;80.50;;;;;;5076622;28;20396;-66
2023/10/23 04:06:32;;;;;;;12.90;7.90;;;12.90;80.50;;;;;;5091802;28;20023;-66
2023/10/23 04:08:58;;;;;;;11.95;7.47;;;13.00;81.20;;;;;;5093926;28;20450;-66
2023/10/23 04:11:25;;;;;;;12.23;7.47;;;13.00;80.60;;;;;;5080040;28;20525;-66
2023/10/23 04:13:50;;;;;;;14.95;8.02;;;13.00;80.60;;;;;;5078720;28;20028;-66
2023/10/23 04:16:16;;;;;;;12.52;7.93;;;13.00;80.60;;;;;;5080558;28;20039;-66
2023/10/23 04:18:43;;;;;;;12.20;7.70;;;13.00;80.60;;;;;;5089743;28;20121;-66
2023/10/23 04:21:10;;;;;;;13.90;8.38;;;13.00;80.70;;;;;;5078696;28;20085;-66
2023/10/23 04:23:37;;;;;;;15.68;8.38;;;13.00;80.70;;;;;;5086247;28;20115;-66
2023/10/23 04:26:04;;;;;;;13.80;8.13;;;13.00;80.80;;;;;;5095247;28;20350;-66
2023/10/23 04:28:31;;;;;;;14.93;9.00;;;13.00;80.90;;;;;;5095595;28;20024;-66
2023/10/23 04:30:57;;;;;;;17.70;9.07;;;13.00;81.00;;;;;;5074895;28;20357;-66
2023/10/23 04:33:23;;;;;;;13.55;8.27;;;13.00;81.00;;;;;;5078059;28;20044;-66
2023/10/23 04:35:54;;;;;;;16.25;9.75;;;13.00;81.10;;;;;;5091360;28;20107;-66
2023/10/23 04:38:20;;;;;;;16.07;9.30;;;13.00;81.20;;;;;;5077630;28;20028;-66
2023/10/23 04:40:46;;;;;;;15.30;10.63;;;13.00;81.30;;;;;;5092073;28;20427;-66
2023/10/23 04:43:12;;;;;;;18.63;11.38;;;13.00;82.00;;;;;;5091355;28;20059;-66
2023/10/23 04:45:39;;;;;;;14.43;9.48;;;13.00;81.50;;;;;;5092546;28;20035;-66
2023/10/23 04:48:06;;;;;;;15.48;10.15;;;13.00;81.60;;;;;;5092090;28;20355;-66
2023/10/23 04:50:35;;;;;;;14.43;9.27;;;13.00;81.60;;;;;;5094091;28;20337;-66
2023/10/23 04:53:02;;;;;;;15.00;9.27;;;13.10;81.70;;;;;;5091663;28;20505;-65
2023/10/23 04:55:39;;;;;;;13.52;8.15;;;13.10;81.80;;;;;;5089677;28;20036;-66
2023/10/23 04:58:05;;;;;;;11.98;7.72;;;13.00;81.70;;;;;;5091617;28;20044;-66
2023/10/23 05:00:35;;;;;;;12.73;8.07;;;13.10;81.80;;;;;;5091776;28;20024;-66
2023/10/23 05:03:03;;;;;;;12.77;7.97;;;13.00;81.80;;;;;;5087971;28;20031;-66
2023/10/23 05:05:29;;;;;;;12.45;8.23;;;13.10;81.90;;;;;;5092857;28;20020;-66
2023/10/23 05:07:55;;;;;;;13.73;8.40;;;13.10;81.90;;;;;;5090008;28;20092;-66
2023/10/23 05:10:21;;;;;;;11.82;8.38;;;13.10;82.00;;;;;;5091871;28;20123;-66
2023/10/23 05:12:49;;;;;;;10.70;7.05;;;13.10;82.00;;;;;;5091212;28;20479;-66
2023/10/23 05:15:16;;;;;;;13.13;7.97;;;13.10;82.00;;;;;;5096828;28;20589;-66
2023/10/23 05:17:41;;;;;;;12.15;7.18;;;13.10;82.00;;;;;;5095074;28;20032;-66
2023/10/23 05:20:08;;;;;;;11.63;6.95;;;13.10;82.00;;;;;;5094255;28;20027;-66
2023/10/23 05:22:34;;;;;;;11.82;7.28;;;13.10;82.00;;;;;;5094402;28;20024;-66
2023/10/23 05:25:00;;;;;;;11.38;7.22;;;13.10;82.00;;;;;;5096199;28;20391;-67
2023/10/23 05:27:26;;;;;;;11.52;7.18;;;13.10;82.10;;;;;;5079130;28;20032;-67
2023/10/23 05:29:52;;;;;;;11.55;7.28;;;13.10;82.10;;;;;;5095795;28;20024;-67
2023/10/23 05:32:18;;;;;;;11.02;6.57;;;13.10;82.10;;;;;;5096886;28;20119;-66
2023/10/23 05:34:44;;;;;;;10.85;6.47;;;13.10;82.10;;;;;;5098125;28;20151;-67
2023/10/23 05:37:11;;;;;;;11.90;6.82;;;13.10;82.20;;;;;;5099221;28;20016;-67
2023/10/23 05:39:36;;;;;;;12.13;7.00;;;13.10;82.20;;;;;;5077279;28;20081;-67
2023/10/23 05:42:03;;;;;;;12.02;7.32;;;13.10;82.30;;;;;;5077485;28;20430;-67
2023/10/23 05:44:28;;;;;;;12.95;7.43;;;13.10;82.30;;;;;;5080655;28;20430;-67
2023/10/23 05:46:54;;;;;;;11.13;7.20;;;13.10;82.30;;;;;;5093951;28;20020;-67
2023/10/23 05:49:20;;;;;;;13.55;7.18;;;13.10;82.30;;;;;;5092940;28;20020;-67
2023/10/23 05:51:46;;;;;;;11.77;7.53;;;13.10;82.30;;;;;;5082865;28;20032;-67
2023/10/23 05:54:11;;;;;;;12.35;7.22;;;13.10;82.30;;;;;;5079651;28;20020;-67
2023/10/23 05:56:37;;;;;;;12.27;7.63;;;13.10;82.30;;;;;;5097750;28;20333;-67
2023/10/23 05:59:03;;;;;;;12.07;7.22;;;13.10;82.30;;;;;;5097938;28;20020;-67
2023/10/23 06:01:29;;;;;;;14.68;7.10;;;13.10;82.30;;;;;;5099143;28;20426;-67
2023/10/23 06:03:55;;;;;;;13.70;7.60;;;13.10;82.40;;;;;;5112057;28;20026;-67
2023/10/23 06:06:21;;;;;;;12.25;7.60;;;13.10;82.40;;;;;;5101745;28;20073;-67
2023/10/23 06:08:47;;;;;;;12.32;7.30;;;13.10;82.40;;;;;;5116699;28;20336;-67
2023/10/23 06:11:13;;;;;;;12.30;8.00;;;13.10;82.40;;;;;;5111563;28;20027;-66
2023/10/23 06:13:39;;;;;;;13.63;7.18;;;13.10;82.40;;;;;;5095865;28;20448;-67
2023/10/23 06:16:05;;;;;;;13.32;7.88;;;13.10;82.40;;;;;;5102263;28;20028;-66
2023/10/23 06:18:35;;;;;;;12.82;8.13;;;13.10;82.40;;;;;;5098831;28;20039;-67
2023/10/23 06:21:05;;;;;;;14.30;8.07;;;13.10;82.50;;;;;;5080826;28;20032;-68
2023/10/23 06:23:39;;;;;;;14.05;8.07;;;13.10;82.40;;;;;;5077277;28;20024;-69
2023/10/23 06:26:06;;;;;;;12.18;7.63;;;13.10;82.40;;;;;;5073738;28;20421;-68
2023/10/23 06:28:33;;;;;;;12.23;7.78;;;13.20;82.40;;;;;;5089784;28;20376;-68
2023/10/23 06:31:09;;;;;;;15.40;8.23;;;13.20;82.40;;;;;;5097968;28;20020;-68
2023/10/23 06:33:35;;;;;;;14.07;9.05;;;13.20;82.30;;;;;;5092522;28;20040;-67
2023/10/23 06:36:03;;;;;;;12.80;7.50;;;13.20;82.30;;;;;;5094494;28;20024;-68
2023/10/23 06:38:29;;;;;;;15.13;9.05;;;13.20;82.30;;;;;;5075873;28;20020;-68
2023/10/23 06:40:55;;;;;;;12.95;8.60;;;13.20;82.30;;;;;;5083451;28;20050;-68
2023/10/23 06:43:21;;;;;;;14.98;8.57;;;13.20;82.30;;;;;;5104285;28;20055;-67
2023/10/23 06:45:47;;;;;;;13.50;8.85;;;13.20;82.30;;;;;;5096192;28;20016;-67
2023/10/23 06:48:15;;;;;;;14.52;8.07;;;13.30;82.30;;;;;;5093825;28;20338;-67
2023/10/23 06:50:47;;;;;;;14.27;9.02;;;13.30;82.30;;;;;;5103469;28;20039;-67
2023/10/23 06:53:15;;;;;;;17.30;9.07;;;13.30;82.30;;;;;;5101397;28;20032;-67
2023/10/23 06:55:51;;;;;;;17.67;9.50;;;13.20;82.20;;;;;;5107029;28;20106;-67
2023/10/23 06:58:19;;;;;;;15.95;9.32;;;13.20;82.30;;;;;;5115484;28;20563;-67
2023/10/23 07:00:45;;;;;;;16.25;9.23;;;13.20;82.30;;;;;;5115802;28;20055;-67
2023/10/23 07:03:11;;;;;;;17.42;9.65;;;13.20;82.30;;;;;;5110400;28;20019;-66
2023/10/23 07:05:37;;;;;;;15.85;8.25;;;13.20;82.30;;;;;;5111028;27;20433;-67
2023/10/23 07:08:03;;;;;;;13.98;8.82;;;13.20;82.30;;;;;;5104572;28;20035;-66
2023/10/23 07:10:35;;;;;;;12.40;7.25;;;13.20;82.30;;;;;;5097212;28;20020;-67
2023/10/23 07:13:02;;;;;;;12.95;7.55;;;13.20;82.30;;;;;;5097750;28;20024;-67
2023/10/23 07:15:28;;;;;;;13.15;7.78;;;13.10;82.30;;;;;;5095034;28;20063;-67
2023/10/23 07:17:54;;;;;;;13.93;8.32;;;13.10;82.20;;;;;;5098827;28;20428;-67
2023/10/23 07:20:20;;;;;;;15.07;8.45;;;13.10;82.20;;;;;;5092422;28;20077;-67
2023/10/23 07:22:46;;;;;;;15.00;8.52;;;13.10;82.30;;;;;;5090737;28;21654;-66
2023/10/23 07:25:11;;;;;;;13.07;7.30;;;13.10;82.30;;;;;;5093698;28;20039;-67
2023/10/23 07:27:39;;;;;;;13.18;7.00;;;13.10;82.20;;;;;;5093790;28;20043;-66
2023/10/23 07:30:05;;;;;;;15.07;8.50;;;13.10;82.10;;;;;;5094839;28;20024;-67
2023/10/23 07:32:31;;;;;;;12.98;7.97;;;13.10;82.10;;;;;;5106404;28;20035;-66
2023/10/23 07:34:57;;;;;;;17.05;8.68;;;13.10;82.10;;;;;;5098381;28;20047;-66
2023/10/23 07:37:23;;;;;;;13.60;8.50;;;13.10;82.10;;;;;;5097951;28;20016;-67
2023/10/23 07:39:49;;;;;;;12.88;7.57;;;13.10;82.20;;;;;;5106068;28;20024;-66
2023/10/23 07:42:15;;;;;;;12.23;7.38;;;13.10;82.20;;;;;;5101587;28;20043;-66
2023/10/23 07:44:42;;;;;;;11.48;7.32;;;13.10;82.10;;;;;;5098795;28;20359;-67
2023/10/23 07:47:08;;;;;;;11.05;6.53;;;13.10;82.10;;;;;;5100783;28;20107;-67
2023/10/23 07:49:34;;;;;;;14.95;7.75;;;13.10;82.10;;;;;;5097330;28;20437;-67
2023/10/23 07:51:59;;;;;;;14.60;8.40;;;13.10;82.10;;;;;;5082482;28;20052;-67
2023/10/23 07:54:25;;;;;;;12.43;7.45;;;13.10;82.10;;;;;;5084325;28;20055;-67
2023/10/23 07:56:55;;;;;;;17.02;7.80;;;13.10;82.00;;;;;;5077534;28;20040;-66
2023/10/23 07:59:21;;;;;;;12.13;7.00;;;13.20;82.00;;;;;;5079961;28;20036;-67
2023/10/23 08:01:47;;;;;;;12.77;7.32;;;13.10;81.90;;;;;;5079778;28;20021;-67
2023/10/23 08:04:14;;;;;;;12.93;6.75;;;13.10;81.80;;;;;;5079228;28;20035;-67
2023/10/23 08:06:39;;;;;;;11.90;7.38;;;13.10;81.80;;;;;;5079213;28;20028;-67
2023/10/23 08:09:06;;;;;;;12.32;7.00;;;13.10;81.80;;;;;;5074512;28;20081;-67
2023/10/23 08:11:32;;;;;;;15.90;8.10;;;13.10;81.80;;;;;;5084229;28;20459;-67
2023/10/23 08:13:59;;;;;;;14.20;7.68;;;13.20;81.90;;;;;;5065399;28;20016;-67
2023/10/23 08:16:25;;;;;;;15.60;8.82;;;13.20;81.80;;;;;;5072084;28;20357;-68
2023/10/23 08:18:50;;;;;;;17.85;10.07;;;13.20;81.70;;;;;;5077750;28;20047;-67
2023/10/23 08:21:16;;;;;;;14.45;9.07;;;13.20;81.70;;;;;;5072352;28;20032;-66
2023/10/23 08:23:46;;;;;;;16.00;9.93;;;13.20;81.70;;;;;;5079105;28;20021;-66
2023/10/23 08:26:12;;;;;;;15.48;8.82;;;13.20;81.70;;;;;;5074941;28;20024;-66
2023/10/23 08:28:38;;;;;;;13.95;8.63;;;13.20;81.80;;;;;;5059967;28;20055;-66
2023/10/23 08:31:04;;;;;;;16.23;8.45;;;13.20;81.70;;;;;;5078397;28;20138;-66
2023/10/23 08:33:29;;;;;;;14.90;8.60;;;13.20;81.80;;;;;;5079370;28;20028;-66
2023/10/23 08:35:55;;;;;;;13.55;8.57;;;13.20;81.80;;;;;;5086444;28;20035;-66
2023/10/23 08:38:21;;;;;;;12.40;7.63;;;13.20;81.70;;;;;;5086369;28;20031;-66
2023/10/23 08:40:47;;;;;;;14.43;8.82;;;13.20;81.70;;;;;;5085476;28;20371;-66
2023/10/23 08:43:13;;;;;;;13.00;8.25;;;13.20;81.70;;;;;;5083942;28;20108;-65
2023/10/23 08:45:43;;;;;;;11.82;7.65;;;13.20;81.60;;;;;;5064986;28;20167;-66
2023/10/23 08:48:09;;;;;;;13.68;7.10;;;13.20;81.60;;;;;;5085537;28;20055;-66
2023/10/23 08:50:37;;;;;;;12.48;7.30;;;13.20;81.60;;;;;;5083201;28;20113;-66
2023/10/23 08:53:09;;;;;;;10.05;6.65;;;13.20;81.50;;;;;;5090033;28;20028;-66
2023/10/23 08:55:36;;;;;;;11.88;7.03;;;13.20;81.50;;;;;;5086814;28;20077;-66
2023/10/23 08:58:04;;;;;;;11.82;7.30;;;13.20;81.50;;;;;;5037963;28;1458214;-66
2023/10/23 09:00:30;;;;;;;14.93;7.80;;;13.20;81.40;;;;;;5088897;28;20028;-65
2023/10/23 09:02:58;;;;;;;13.38;7.47;;;13.20;81.40;;;;;;5079344;28;20024;-66
2023/10/23 09:05:24;;;;;;;13.73;8.32;;;13.30;81.50;;;;;;5062932;28;20040;-66
2023/10/23 09:07:50;;;;;;;12.50;8.18;;;13.30;81.50;;;;;;5090035;28;20099;-66
2023/10/23 09:10:16;;;;;;;15.13;9.05;;;13.30;81.50;;;;;;5088399;28;20025;-65
2023/10/23 09:12:43;;;;;;;14.05;9.40;;;13.40;81.50;;;;;;5080787;28;20325;-66
2023/10/23 09:15:13;;;;;;;13.80;8.15;;;13.40;81.50;;;;;;5091480;28;20016;-66
2023/10/23 09:17:43;;;;;;;13.82;9.18;;;13.40;81.50;;;;;;5073722;28;20043;-66
2023/10/23 09:20:23;;;;;;;13.80;8.43;;;13.40;81.40;;;;;;5090575;28;20064;-66
2023/10/23 09:22:52;;;;;;;15.98;8.07;;;13.50;81.40;;;;;;5086632;28;20123;-65
2023/10/23 09:25:22;;;;;;;15.68;8.68;;;13.50;81.40;;;;;;5088559;28;20043;-66
2023/10/23 09:27:49;;;;;;;12.48;8.57;;;13.50;81.40;;;;;;5091840;28;20420;-66
2023/10/23 09:30:21;;;;;;;13.40;8.18;;;13.50;81.40;;;;;;5094717;28;20058;-66
2023/10/23 09:32:55;;;;;;;12.55;8.48;;;13.50;81.40;;;;;;5091488;28;20027;-66
2023/10/23 09:35:28;;;;;;;13.98;9.05;;;13.60;81.40;;;;;;5091042;28;20578;-66
2023/10/23 09:37:56;;;;;;;14.35;8.40;;;13.60;81.30;;;;;;5093279;28;20017;-66
2023/10/23 09:40:22;;;;;;;13.95;8.50;;;13.60;81.30;;;;;;5061786;28;20101;-66
2023/10/23 09:42:49;;;;;;;13.77;8.80;;;13.70;81.30;;;;;;5091789;28;20471;-66
2023/10/23 09:45:15;;;;;;;14.45;9.07;;;13.70;81.20;;;;;;5093524;28;20026;-66
2023/10/23 09:47:41;;;;;;;13.57;9.43;;;13.80;81.20;;;;;;5089349;28;20413;-66
2023/10/23 09:50:08;;;;;;;17.90;10.40;;;13.80;81.00;;;;;;5098813;28;20376;-66
2023/10/23 09:52:35;;;;;;;14.60;9.60;;;13.80;80.90;;;;;;5104165;28;20031;-66
2023/10/23 09:55:01;;;;;;;15.38;10.25;;;13.90;80.90;;;;;;5077086;28;20044;-66
2023/10/23 09:57:39;;;;;;;15.55;9.98;;;14.00;80.70;;;;;;5111588;28;20352;-66
2023/10/23 10:00:13;;;;;;;13.90;9.32;;;14.10;80.60;;;;;;5107076;28;20421;-66
2023/10/23 10:02:40;;;;;;;15.40;9.55;;;14.20;80.40;;;;;;5117818;28;20111;-67
2023/10/23 10:05:12;;;;;;;15.00;8.95;;;14.40;80.30;;;;;;5115740;28;20508;-66
2023/10/23 10:08:07;;;;;;;14.35;8.93;;;14.50;80.00;;;;;;5115726;28;20049;-66
2023/10/23 10:10:35;;;;;;;14.90;8.93;;;14.60;79.60;;;;;;5105302;28;20047;-66
2023/10/23 10:13:03;;;;;;;14.18;8.70;;;14.80;79.40;;;;;;5094937;28;20032;-65
2023/10/23 10:15:31;;;;;;;12.95;8.60;;;14.80;79.10;;;;;;5107798;28;20341;-66
2023/10/23 10:17:56;;;;;;;10.85;7.35;;;14.90;78.90;;;;;;5078396;28;20024;-66
2023/10/23 10:20:23;;;;;;;14.63;7.88;;;15.00;78.80;;;;;;5104418;28;20490;-65
2023/10/23 10:23:11;;;;;;;14.05;8.23;;;15.00;78.70;;;;;;5109754;28;20032;-66
2023/10/23 10:25:46;;;;;;;11.85;7.47;;;15.10;78.50;;;;;;5098173;28;20286;-65
2023/10/23 10:28:13;;;;;;;12.07;7.80;;;15.10;78.50;;;;;;5115690;28;20024;-65
2023/10/23 10:30:50;;;;;;;13.45;7.53;;;15.10;78.50;;;;;;5108292;28;20114;-65
2023/10/23 10:33:23;;;;;;;17.33;8.07;;;15.10;78.50;;;;;;5099869;28;20419;-65
2023/10/23 10:35:57;;;;;;;16.08;8.45;;;15.20;78.50;;;;;;5091922;28;20035;-66
2023/10/23 10:38:24;;;;;;;15.98;8.13;;;15.20;78.40;;;;;;5091364;28;20082;-65
2023/10/23 10:41:17;;;;;;;13.10;8.30;;;15.20;78.40;;;;;;5094997;28;20020;-65
2023/10/23 10:43:49;;;;;;;13.20;7.80;;;15.30;78.20;;;;;;5078895;28;20109;-65
2023/10/23 10:46:26;;;;;;;11.85;8.02;;;15.30;78.20;;;;;;5092306;28;20032;-66
2023/10/23 10:48:56;;;;;;;11.52;7.43;;;15.40;78.10;;;;;;5096064;28;20023;-66
2023/10/23 10:51:26;;;;;;;11.82;7.97;;;15.40;77.90;;;;;;5094122;28;20429;-66
2023/10/23 10:54:03;;;;;;;13.70;8.68;;;15.50;77.80;;;;;;5075025;28;20710;-66
2023/10/23 10:56:30;;;;;;;15.60;7.72;;;15.50;77.60;;;;;;5094053;28;20522;-66
2023/10/23 10:59:02;;;;;;;14.07;8.57;;;15.60;77.50;;;;;;5097129;28;20079;-66
2023/10/23 11:01:29;;;;;;;12.55;8.52;;;15.60;77.20;;;;;;5093813;28;20024;-66
2023/10/23 11:03:55;;;;;;;12.57;8.77;;;15.60;77.10;;;;;;5094582;28;20031;-66
2023/10/23 11:06:22;;;;;;;14.57;9.25;;;15.70;77.10;;;;;;5104658;28;20110;-66
2023/10/23 11:08:50;;;;;;;13.68;8.85;;;15.70;77.00;;;;;;5111885;28;20024;-66
2023/10/23 11:11:16;;;;;;;13.52;9.27;;;15.70;77.00;;;;;;5073089;28;20035;-66
2023/10/23 11:13:43;;;;;;;15.80;9.70;;;15.80;77.00;;;;;;5092772;28;20064;-66
2023/10/23 11:16:11;;;;;;;14.15;9.55;;;15.80;76.90;;;;;;5085202;28;20036;-66
2023/10/23 11:18:37;;;;;;;14.50;10.00;;;15.80;76.90;;;;;;5109634;28;20081;-66
2023/10/23 11:21:05;;;;;;;18.77;11.02;;;15.80;76.90;;;;;;5115636;28;20016;-66
2023/10/23 11:23:31;;;;;;;17.58;11.75;;;15.80;76.90;;;;;;5104178;28;20413;-66
2023/10/23 11:25:57;;;;;;;19.38;11.13;;;15.80;76.90;;;;;;5103341;28;20081;-66
2023/10/23 11:28:24;;;;;;;18.20;12.23;;;15.80;76.90;;;;;;5114193;28;20020;-66
2023/10/23 11:30:54;;;;;;;17.45;12.60;;;15.80;76.80;;;;;;5115462;28;20115;-66
2023/10/23 11:33:20;;;;;;;20.95;12.90;;;15.90;76.70;;;;;;5086800;28;20028;-66
2023/10/23 11:35:46;;;;;;;17.92;10.80;;;15.90;76.70;;;;;;5104909;28;20035;-66
2023/10/23 11:38:18;;;;;;;16.55;10.90;;;15.90;76.60;;;;;;5089694;28;20045;-66
2023/10/23 11:40:44;;;;;;;22.55;12.20;;;15.90;76.60;;;;;;5103734;28;20053;-66
2023/10/23 11:43:11;;;;;;;16.55;11.57;;;15.90;76.50;;;;;;5111825;28;20019;-66
2023/10/23 11:45:39;;;;;;;16.55;11.15;;;15.90;76.50;;;;;;5082224;28;20035;-66
2023/10/23 11:48:06;;;;;;;16.50;11.18;;;15.90;76.50;;;;;;5087671;28;20349;-66
2023/10/23 11:50:33;;;;;;;18.52;11.35;;;15.90;76.50;;;;;;5109139;28;20024;-66
2023/10/23 11:52:59;;;;;;;21.33;10.82;;;15.90;76.50;;;;;;5107423;28;20032;-66
2023/10/23 11:55:25;;;;;;;21.42;12.23;;;15.90;76.50;;;;;;5077078;28;20043;-66
2023/10/23 11:57:51;;;;;;;17.33;10.77;;;15.90;76.50;;;;;;5104661;28;20152;-66
2023/10/23 12:00:21;;;;;;;19.95;10.70;;;15.90;76.50;;;;;;5107407;28;20352;-66
2023/10/23 12:02:47;;;;;;;16.15;9.30;;;15.90;76.50;;;;;;5112117;28;20061;-66
2023/10/23 12:05:19;;;;;;;13.43;8.40;;;15.90;76.50;;;;;;5112562;28;20371;-66
2023/10/23 12:07:47;;;;;;;13.77;7.75;;;15.90;76.50;;;;;;5103113;28;20031;-66
2023/10/23 12:10:13;;;;;;;14.32;7.55;;;16.00;76.60;;;;;;5096466;28;20081;-66
2023/10/23 12:12:41;;;;;;;14.77;7.88;;;15.90;76.70;;;;;;5112703;28;20050;-66
2023/10/23 12:15:11;;;;;;;13.60;5.90;;;15.90;76.90;;;;;;5114761;28;20027;-66
2023/10/23 12:17:38;;;;;;;10.65;5.57;;;16.00;76.50;;;;;;5112387;28;20076;-66
2023/10/23 12:20:07;;;;;;;11.63;5.55;;;16.00;76.40;;;;;;5113399;28;20114;-66
2023/10/23 12:22:44;;;;;;;10.25;4.78;;;16.00;76.30;;;;;;5112281;28;20036;-66
2023/10/23 12:25:10;;;;;;;10.30;5.25;;;16.10;76.30;;;;;;5104843;28;20042;-66
2023/10/23 12:27:37;;;;;;;10.63;4.57;;;16.10;76.30;;;;;;5086773;28;20024;-66
2023/10/23 12:30:04;;;;;;;10.30;4.93;;;16.10;76.20;;;;;;5087029;28;20031;-66
2023/10/23 12:32:31;;;;;;;12.13;4.60;;;16.20;76.20;;;;;;5086235;28;20112;-66
2023/10/23 12:34:57;;;;;;;10.90;4.55;;;16.10;76.00;;;;;;5067444;28;20360;-66
2023/10/23 12:37:27;;;;;;;10.32;4.30;;;16.10;75.90;;;;;;5086512;28;20028;-66